createdAt,value
2023-01-03T00:01:10.397Z,6.07
2023-01-03T00:03:36.840Z,6.63
2023-01-03T00:06:03.973Z,5.95
2023-01-03T00:08:30.600Z,6.00
2023-01-03T00:10:57.020Z,5.70
2023-01-03T00:13:23.526Z,5.90
2023-01-03T00:15:49.889Z,5.82
2023-01-03T00:18:16.315Z,5.25
2023-01-03T00:20:42.949Z,5.15
2023-01-03T00:23:09.333Z,4.80
2023-01-03T00:25:35.705Z,4.90
2023-01-03T00:28:02.113Z,5.13
2023-01-03T00:30:28.947Z,4.95
2023-01-03T00:32:55.395Z,4.40
2023-01-03T00:35:22.185Z,4.38
2023-01-03T00:37:48.581Z,4.82
2023-01-03T00:40:15.072Z,4.70
2023-01-03T00:42:59.899Z,4.25
2023-01-03T00:45:28.087Z,3.67
2023-01-03T00:47:56.281Z,3.78
2023-01-03T00:50:22.716Z,4.20
2023-01-03T00:52:49.111Z,4.75
2023-01-03T00:55:15.572Z,4.05
2023-01-03T00:57:43.500Z,4.40
2023-01-03T01:00:10.880Z,4.10
2023-01-03T01:02:37.730Z,4.78
2023-01-03T01:05:05.387Z,4.43
2023-01-03T01:07:31.762Z,4.57
2023-01-03T01:09:58.148Z,5.32
2023-01-03T01:12:24.517Z,5.57
2023-01-03T01:14:50.962Z,5.55
2023-01-03T01:17:22.360Z,5.78
2023-01-03T01:19:49.106Z,5.80
2023-01-03T01:22:15.551Z,5.47
2023-01-03T01:24:42.318Z,6.43
2023-01-03T01:27:08.884Z,5.97
2023-01-03T01:29:36.818Z,6.85
2023-01-03T01:32:04.098Z,6.57
2023-01-03T01:34:31.742Z,7.00
2023-01-03T01:36:58.338Z,6.85
2023-01-03T01:39:27.891Z,6.82
2023-01-03T01:42:19.691Z,6.80
2023-01-03T01:44:57.383Z,7.32
2023-01-03T01:47:39.132Z,7.07
2023-01-03T01:50:11.781Z,7.38
2023-01-03T01:55:13.637Z,8.00
2023-01-03T01:57:41.902Z,8.38
2023-01-03T02:00:09.846Z,8.45
2023-01-03T02:02:44.880Z,8.05
2023-01-03T02:05:11.992Z,8.15
2023-01-03T02:07:39.553Z,8.63
2023-01-03T02:10:06.771Z,8.90
2023-01-03T02:13:05.476Z,8.90
2023-01-03T02:16:11.992Z,10.27
2023-01-03T02:19:32.803Z,9.38
2023-01-03T02:22:05.002Z,10.25
2023-01-03T02:25:04.260Z,9.68
2023-01-03T02:27:45.550Z,8.80
2023-01-03T02:30:28.665Z,8.55
2023-01-03T02:33:07.051Z,7.97
2023-01-03T02:35:49.199Z,8.73
2023-01-03T02:38:39.261Z,7.53
2023-01-03T02:41:16.819Z,6.93
2023-01-03T02:44:04.878Z,7.68
2023-01-03T02:46:56.707Z,7.03
2023-01-03T02:49:30.736Z,7.10
2023-01-03T02:52:32.640Z,6.65
2023-01-03T02:55:14.980Z,6.65
2023-01-03T02:57:48.459Z,7.05
2023-01-03T03:02:51.692Z,6.93
2023-01-03T03:05:24.716Z,7.07
2023-01-03T03:07:52.308Z,6.45
2023-01-03T03:10:37.991Z,6.97
2023-01-03T03:13:19.884Z,6.55
2023-01-03T03:16:05.458Z,6.18
2023-01-03T03:18:55.533Z,6.47
2023-01-03T03:21:43.234Z,6.25
2023-01-03T03:24:34.645Z,6.88
2023-01-03T03:27:24.846Z,6.47
2023-01-03T03:29:56.034Z,6.72
2023-01-03T03:32:26.151Z,6.90
2023-01-03T03:34:56.751Z,7.05
2023-01-03T03:37:26.894Z,7.55
2023-01-03T03:40:13.383Z,6.65
2023-01-03T03:43:09.656Z,6.95
2023-01-03T03:45:50.648Z,7.20
2023-01-03T03:48:28.730Z,7.28
2023-01-03T03:51:07.083Z,6.70
2023-01-03T03:53:36.633Z,6.43
2023-01-03T03:56:10.347Z,7.30
2023-01-03T03:58:40.497Z,6.90
2023-01-03T04:01:11.229Z,6.45
2023-01-03T04:03:40.643Z,6.55
2023-01-03T04:06:13.711Z,6.50
2023-01-03T04:08:40.152Z,7.03
2023-01-03T04:11:06.999Z,6.78
2023-01-03T04:13:35.355Z,6.68
2023-01-03T04:16:02.431Z,6.20
2023-01-03T04:18:28.905Z,6.72
2023-01-03T04:20:55.342Z,6.47
2023-01-03T04:23:21.969Z,6.20
2023-01-03T04:25:51.013Z,6.72
2023-01-03T04:28:18.058Z,6.38
2023-01-03T04:30:45.232Z,6.47
2023-01-03T04:33:11.746Z,6.03
2023-01-03T04:35:38.336Z,5.72
2023-01-03T04:38:05.261Z,6.70
2023-01-03T04:40:34.456Z,5.88
2023-01-03T04:43:19.654Z,6.78
2023-01-03T04:45:48.423Z,7.07
2023-01-03T04:48:15.309Z,6.63
2023-01-03T04:50:41.764Z,5.75
2023-01-03T04:53:08.180Z,6.00
2023-01-03T04:55:34.579Z,6.50
2023-01-03T04:58:01.027Z,7.05
2023-01-03T05:00:27.907Z,6.72
2023-01-03T05:02:54.421Z,6.40
2023-01-03T05:05:20.807Z,6.43
2023-01-03T05:07:47.222Z,7.15
2023-01-03T05:10:13.624Z,7.65
2023-01-03T05:12:39.998Z,7.25
2023-01-03T05:15:07.054Z,7.88
2023-01-03T05:17:33.456Z,8.48
2023-01-03T05:20:31.907Z,8.25
2023-01-03T05:23:17.347Z,8.80
2023-01-03T05:25:49.848Z,7.82
2023-01-03T05:28:18.114Z,8.07
2023-01-03T05:30:44.550Z,8.70
2023-01-03T05:33:10.965Z,9.45
2023-01-03T05:35:38.172Z,8.95
2023-01-03T05:38:04.563Z,9.18
2023-01-03T05:40:34.913Z,9.10
2023-01-03T05:43:04.131Z,8.73
2023-01-03T05:45:30.795Z,8.93
2023-01-03T05:47:58.547Z,9.15
2023-01-03T05:50:25.495Z,8.23
2023-01-03T05:52:52.433Z,8.80
2023-01-03T05:55:18.853Z,9.00
2023-01-03T05:57:47.131Z,9.23
2023-01-03T06:00:14.658Z,9.18
2023-01-03T06:02:41.199Z,9.57
2023-01-03T06:05:08.091Z,8.75
2023-01-03T06:07:36.514Z,8.77
2023-01-03T06:10:07.086Z,8.32
2023-01-03T06:12:33.827Z,8.05
2023-01-03T06:15:00.292Z,8.10
2023-01-03T06:17:45.677Z,7.72
2023-01-03T06:20:12.092Z,7.75
2023-01-03T06:22:38.590Z,8.95
2023-01-03T06:25:05.380Z,8.85
2023-01-03T06:27:31.874Z,8.80
2023-01-03T06:29:58.353Z,8.40
2023-01-03T06:32:25.004Z,10.00
2023-01-03T06:34:51.462Z,8.50
2023-01-03T06:37:17.857Z,8.27
2023-01-03T06:39:45.683Z,8.13
2023-01-03T06:42:30.693Z,7.40
2023-01-03T06:45:15.593Z,8.27
2023-01-03T06:48:00.376Z,8.20
2023-01-03T06:50:45.118Z,8.10
2023-01-03T06:53:21.480Z,7.95
2023-01-03T06:55:54.429Z,8.38
2023-01-03T06:58:22.993Z,7.57
2023-01-03T07:00:49.922Z,7.90
2023-01-03T07:03:16.310Z,7.47
2023-01-03T07:05:42.769Z,8.18
2023-01-03T07:08:09.439Z,7.60
2023-01-03T07:10:35.846Z,7.65
2023-01-03T07:13:20.939Z,7.40
2023-01-03T07:15:47.443Z,8.77
2023-01-03T07:18:14.173Z,8.05
2023-01-03T07:20:44.965Z,8.27
2023-01-03T07:23:12.765Z,8.55
2023-01-03T07:25:41.528Z,8.27
2023-01-03T07:28:11.098Z,8.07
2023-01-03T07:30:45.341Z,8.02
2023-01-03T07:33:13.799Z,6.93
2023-01-03T07:35:40.394Z,7.47
2023-01-03T07:38:07.584Z,7.20
2023-01-03T07:40:34.195Z,7.10
2023-01-03T07:43:18.921Z,7.90
2023-01-03T07:45:46.114Z,8.32
2023-01-03T07:48:13.280Z,7.28
2023-01-03T07:50:40.202Z,7.15
2023-01-03T07:53:08.620Z,6.90
2023-01-03T07:55:36.890Z,7.40
2023-01-03T07:58:03.583Z,7.13
2023-01-03T08:00:30.097Z,6.93
2023-01-03T08:02:57.058Z,6.85
2023-01-03T08:05:24.856Z,6.90
2023-01-03T08:07:52.601Z,6.88
2023-01-03T08:10:38.871Z,7.10
2023-01-03T08:13:18.043Z,6.40
2023-01-03T08:15:49.524Z,7.40
2023-01-03T08:18:19.208Z,7.80
2023-01-03T08:20:46.487Z,7.57
2023-01-03T08:23:13.279Z,7.28
2023-01-03T08:25:40.118Z,7.22
2023-01-03T08:28:08.452Z,7.55
2023-01-03T08:30:41.048Z,7.53
2023-01-03T08:33:10.695Z,7.40
2023-01-03T08:35:39.305Z,6.90
2023-01-03T08:38:09.431Z,7.80
2023-01-03T08:40:41.892Z,6.90
2023-01-03T08:43:10.819Z,7.32
2023-01-03T08:45:38.525Z,6.50
2023-01-03T08:48:06.480Z,6.07
2023-01-03T08:50:32.983Z,6.25
2023-01-03T08:52:59.776Z,6.40
2023-01-03T08:55:26.699Z,6.32
2023-01-03T08:57:53.416Z,5.72
2023-01-03T09:00:19.871Z,6.18
2023-01-03T09:02:46.653Z,5.90
2023-01-03T09:05:13.237Z,5.60
2023-01-03T09:07:39.952Z,5.82
2023-01-03T09:10:06.915Z,5.82
2023-01-03T09:12:33.296Z,5.40
2023-01-03T09:14:59.693Z,5.53
2023-01-03T09:17:26.125Z,5.65
2023-01-03T09:19:52.529Z,5.43
2023-01-03T09:22:19.210Z,5.68
2023-01-03T09:24:45.654Z,5.78
2023-01-03T09:27:12.121Z,6.30
2023-01-03T09:29:38.619Z,5.93
2023-01-03T09:32:05.278Z,5.80
2023-01-03T09:34:31.927Z,5.72
2023-01-03T09:36:58.850Z,5.85
2023-01-03T09:39:25.281Z,5.50
2023-01-03T09:42:11.648Z,5.63
2023-01-03T09:44:40.455Z,5.90
2023-01-03T09:47:10.158Z,5.75
2023-01-03T09:49:57.691Z,5.65
2023-01-03T09:52:46.595Z,6.05
2023-01-03T09:55:43.444Z,5.43
2023-01-03T09:58:34.018Z,5.78
2023-01-03T10:01:37.808Z,4.90
2023-01-03T10:04:33.948Z,5.70
2023-01-03T10:07:19.575Z,5.18
2023-01-03T10:09:48.930Z,5.07
2023-01-03T10:12:38.593Z,4.30
2023-01-03T10:15:18.203Z,4.93
2023-01-03T10:18:23.622Z,4.75
2023-01-03T10:20:56.967Z,4.10
2023-01-03T10:23:23.486Z,4.32
2023-01-03T10:25:49.904Z,4.35
2023-01-03T10:28:18.459Z,4.15
2023-01-03T10:31:07.626Z,4.28
2023-01-03T10:33:40.769Z,4.60
2023-01-03T10:36:09.222Z,5.70
2023-01-03T10:38:44.858Z,4.55
2023-01-03T10:41:45.644Z,4.00
2023-01-03T10:44:30.498Z,4.03
2023-01-03T10:47:00.607Z,4.25
2023-01-03T10:49:31.721Z,3.92
2023-01-03T10:52:29.482Z,4.18
2023-01-03T10:55:01.064Z,3.83
2023-01-03T10:57:58.809Z,4.22
2023-01-03T11:00:27.160Z,3.97
2023-01-03T11:02:55.289Z,4.22
2023-01-03T11:05:25.243Z,3.92
2023-01-03T11:07:57.634Z,3.63
2023-01-03T11:10:30.064Z,3.47
2023-01-03T11:12:56.503Z,3.85
2023-01-03T11:15:37.843Z,3.10
2023-01-03T11:18:17.056Z,3.20
2023-01-03T11:21:11.619Z,2.88
2023-01-03T11:24:02.357Z,3.30
2023-01-03T11:26:51.373Z,3.53
2023-01-03T11:29:59.085Z,2.90
2023-01-03T11:32:40.715Z,3.42
2023-01-03T11:35:34.268Z,2.60
2023-01-03T11:38:12.543Z,2.90
2023-01-03T11:40:48.535Z,2.75
2023-01-03T11:43:36.567Z,2.67
2023-01-03T11:46:30.418Z,2.90
2023-01-03T11:52:15.986Z,2.40
2023-01-03T11:55:05.228Z,2.40
2023-01-03T11:57:59.095Z,2.53
2023-01-03T12:00:46.411Z,2.65
2023-01-03T12:03:39.144Z,2.33
2023-01-03T12:06:25.033Z,2.28
2023-01-03T12:08:57.742Z,2.10
2023-01-03T12:11:44.479Z,2.22
2023-01-03T12:14:17.603Z,2.20
2023-01-03T12:16:48.981Z,2.00
2023-01-03T12:19:49.790Z,1.85
2023-01-03T12:22:26.579Z,1.77
2023-01-03T12:25:04.986Z,1.65
2023-01-03T12:27:42.010Z,1.67
2023-01-03T12:30:31.782Z,1.45
2023-01-03T12:33:31.205Z,1.40
2023-01-03T12:36:24.200Z,1.38
2023-01-03T12:38:58.396Z,1.20
2023-01-03T12:41:35.114Z,1.52
2023-01-03T12:44:11.926Z,1.55
2023-01-03T12:46:45.461Z,1.40
2023-01-03T12:49:28.746Z,1.63
2023-01-03T12:51:55.125Z,1.60
2023-01-03T12:54:40.019Z,1.60
2023-01-03T12:57:21.640Z,1.42
2023-01-03T12:59:54.314Z,2.00
2023-01-03T13:02:30.090Z,1.05
2023-01-03T13:05:14.724Z,1.73
2023-01-03T13:07:46.492Z,1.83
2023-01-03T13:10:19.740Z,1.40
2023-01-03T13:12:52.472Z,1.45
2023-01-03T13:15:36.111Z,1.48
2023-01-03T13:18:20.898Z,1.77
2023-01-03T13:20:52.473Z,1.65
2023-01-03T13:23:57.779Z,1.55
2023-01-03T13:26:26.243Z,1.45
2023-01-03T13:29:31.100Z,1.40
2023-01-03T13:32:38.281Z,2.00
2023-01-03T13:35:04.898Z,1.55
2023-01-03T13:37:44.446Z,1.60
2023-01-03T13:40:21.221Z,1.60
2023-01-03T13:42:47.722Z,1.52
2023-01-03T13:45:19.984Z,1.83
2023-01-03T13:47:49.329Z,1.10
2023-01-03T13:50:26.528Z,1.20
2023-01-03T13:52:58.470Z,1.10
2023-01-03T13:55:46.627Z,1.27
2023-01-03T13:58:48.488Z,1.00
2023-01-03T14:01:45.427Z,0.80
2023-01-03T14:04:39.465Z,0.80
2023-01-03T14:10:08.627Z,0.93
2023-01-03T14:13:03.086Z,0.70
2023-01-03T14:15:32.436Z,0.82
2023-01-03T14:18:07.726Z,0.70
2023-01-03T14:20:36.564Z,0.75
2023-01-03T14:23:39.671Z,0.65
2023-01-03T14:25:54.329Z,0.70
2023-01-03T14:28:24.403Z,1.20
2023-01-03T14:31:07.681Z,0.88
2023-01-03T14:33:41.291Z,0.80
2023-01-03T14:36:16.520Z,0.75
2023-01-03T14:39:01.431Z,0.82
2023-01-03T14:41:37.977Z,1.00
2023-01-03T14:44:14.322Z,1.17
2023-01-03T14:46:50.657Z,0.90
2023-01-03T14:49:35.066Z,1.30
2023-01-03T14:52:06.801Z,0.93
2023-01-03T14:54:33.993Z,1.00
2023-01-03T14:57:02.013Z,0.98
2023-01-03T14:59:29.202Z,0.90
2023-01-03T15:01:55.994Z,0.80
2023-01-03T15:04:24.346Z,0.90
2023-01-03T15:07:13.196Z,0.90
2023-01-03T15:09:40.249Z,0.93
2023-01-03T15:12:07.052Z,0.93
2023-01-03T15:14:38.890Z,1.25
2023-01-03T15:17:16.307Z,1.00
2023-01-03T15:19:56.778Z,1.10
2023-01-03T15:22:32.371Z,1.63
2023-01-03T15:25:16.088Z,1.40
2023-01-03T15:30:22.096Z,1.67
2023-01-03T15:33:03.206Z,2.25
2023-01-03T15:35:39.944Z,2.92
2023-01-03T15:38:15.378Z,2.53
2023-01-03T15:40:43.839Z,1.40
2023-01-03T15:43:23.394Z,1.27
2023-01-03T15:46:16.310Z,1.15
2023-01-03T15:48:56.710Z,1.33
2023-01-03T15:51:23.128Z,1.45
2023-01-03T15:53:49.602Z,1.70
2023-01-03T15:56:18.823Z,1.45
2023-01-03T15:58:46.801Z,1.73
2023-01-03T16:01:13.711Z,1.90
2023-01-03T16:03:40.626Z,1.92
2023-01-03T16:06:07.146Z,2.60
2023-01-03T16:08:38.944Z,2.60
2023-01-03T16:11:15.555Z,2.10
2023-01-03T16:13:47.820Z,2.00
2023-01-03T16:16:19.171Z,1.88
2023-01-03T16:18:46.111Z,1.70
2023-01-03T16:21:13.503Z,2.30
2023-01-03T16:23:40.069Z,1.98
2023-01-03T16:26:07.629Z,1.88
2023-01-03T16:28:34.854Z,1.77
2023-01-03T16:31:07.043Z,1.80
2023-01-03T16:33:35.768Z,1.50
2023-01-03T16:36:04.340Z,1.60
2023-01-03T16:38:33.021Z,2.13
2023-01-03T16:40:59.608Z,2.08
2023-01-03T16:43:27.258Z,1.70
2023-01-03T16:45:58.621Z,1.98
2023-01-03T16:48:28.336Z,2.00
2023-01-03T16:50:55.175Z,2.10
2023-01-03T16:53:28.219Z,1.80
2023-01-03T16:55:56.175Z,1.83
2023-01-03T16:58:24.023Z,1.40
2023-01-03T17:00:52.813Z,2.03
2023-01-03T17:03:20.187Z,1.98
2023-01-03T17:05:47.703Z,2.10
2023-01-03T17:08:20.409Z,1.90
2023-01-03T17:10:49.556Z,2.40
2023-01-03T17:13:26.127Z,3.33
2023-01-03T17:15:53.888Z,1.90
2023-01-03T17:18:38.485Z,1.83
2023-01-03T17:21:10.060Z,1.75
2023-01-03T17:23:39.821Z,1.90
2023-01-03T17:26:06.826Z,1.83
2023-01-03T17:28:34.867Z,1.73
2023-01-03T17:31:01.298Z,1.95
2023-01-03T17:33:33.822Z,2.17
2023-01-03T17:36:00.920Z,2.20
2023-01-03T17:38:34.703Z,2.42
2023-01-03T17:41:01.096Z,2.25
2023-01-03T17:43:28.666Z,1.73
2023-01-03T17:46:22.623Z,2.08
2023-01-03T17:49:09.209Z,2.15
2023-01-03T17:51:35.776Z,1.90
2023-01-03T17:54:02.214Z,2.13
2023-01-03T17:56:29.688Z,2.28
2023-01-03T17:58:56.946Z,2.20
2023-01-03T18:01:23.952Z,2.15
2023-01-03T18:03:50.699Z,2.17
2023-01-03T18:06:23.643Z,2.97
2023-01-03T18:08:52.265Z,4.05
2023-01-03T18:11:26.809Z,3.03
2023-01-03T18:13:53.382Z,2.08
2023-01-03T18:16:22.386Z,2.10
2023-01-03T18:18:49.289Z,1.90
2023-01-03T18:21:24.479Z,2.30
2023-01-03T18:23:56.260Z,2.10
2023-01-03T18:26:23.325Z,2.20
2023-01-03T18:28:49.869Z,2.33
2023-01-03T18:31:18.723Z,2.08
2023-01-03T18:33:45.505Z,2.00
2023-01-03T18:36:24.322Z,2.47
2023-01-03T18:38:52.208Z,2.42
2023-01-03T18:41:25.194Z,2.40
2023-01-03T18:43:51.569Z,2.45
2023-01-03T18:46:19.918Z,2.17
2023-01-03T18:48:46.338Z,1.85
2023-01-03T18:51:18.268Z,2.00
2023-01-03T18:53:48.070Z,1.48
2023-01-03T18:56:26.932Z,2.00
2023-01-03T18:59:01.566Z,1.85
2023-01-03T19:01:28.696Z,2.30
2023-01-03T19:03:55.325Z,1.70
2023-01-03T19:06:30.483Z,1.70
2023-01-03T19:09:02.391Z,1.83
2023-01-03T19:11:34.591Z,1.77
2023-01-03T19:14:02.989Z,1.83
2023-01-03T19:16:34.806Z,1.67
2023-01-03T19:19:02.736Z,1.65
2023-01-03T19:21:33.122Z,2.25
2023-01-03T19:24:12.441Z,2.35
2023-01-03T19:27:23.440Z,2.17
2023-01-03T19:29:51.465Z,2.95
2023-01-03T19:32:21.151Z,3.38
2023-01-03T19:34:48.213Z,3.22
2023-01-03T19:37:14.614Z,3.10
2023-01-03T19:39:41.344Z,2.58
2023-01-03T19:42:32.667Z,2.35
2023-01-03T19:45:00.835Z,2.60
2023-01-03T19:47:28.615Z,2.40
2023-01-03T19:49:55.835Z,2.58
2023-01-03T19:52:22.253Z,2.33
2023-01-03T19:54:48.700Z,2.90
2023-01-03T19:57:23.971Z,2.35
2023-01-03T19:59:56.631Z,2.67
2023-01-03T20:02:32.714Z,2.47
2023-01-03T20:05:00.194Z,2.40
2023-01-03T20:07:26.719Z,2.65
2023-01-03T20:09:53.167Z,3.05
2023-01-03T20:12:25.110Z,2.03
2023-01-03T20:14:53.827Z,2.53
2023-01-03T20:17:22.806Z,2.00
2023-01-03T20:19:49.483Z,2.03
2023-01-03T20:22:37.747Z,2.05
2023-01-03T20:25:04.182Z,2.30
2023-01-03T20:27:30.608Z,2.20
2023-01-03T20:29:56.995Z,2.35
2023-01-03T20:32:24.686Z,2.60
2023-01-03T20:34:51.111Z,2.40
2023-01-03T20:37:20.657Z,2.25
2023-01-03T20:39:47.161Z,2.15
2023-01-03T20:42:24.731Z,2.03
2023-01-03T20:44:51.161Z,2.20
2023-01-03T20:47:23.299Z,2.03
2023-01-03T20:49:50.755Z,2.47
2023-01-03T20:52:17.920Z,1.85
2023-01-03T20:54:44.291Z,2.35
2023-01-03T20:57:18.277Z,2.08
2023-01-03T20:59:44.872Z,2.20
2023-01-03T21:02:12.412Z,2.58
2023-01-03T21:04:39.680Z,1.90
2023-01-03T21:07:11.679Z,2.15
2023-01-03T21:09:38.409Z,2.13
2023-01-03T21:12:04.979Z,2.20
2023-01-03T21:14:31.358Z,2.55
2023-01-03T21:16:57.867Z,2.05
2023-01-03T21:19:24.474Z,2.28
2023-01-03T21:21:55.323Z,2.13
2023-01-03T21:24:23.753Z,2.53
2023-01-03T21:26:50.415Z,2.45
2023-01-03T21:29:17.062Z,2.00
2023-01-03T21:31:43.821Z,2.47
2023-01-03T21:34:18.742Z,2.80
2023-01-03T21:36:45.163Z,2.67
2023-01-03T21:39:11.575Z,2.53
2023-01-03T21:41:58.225Z,2.15
2023-01-03T21:44:24.630Z,1.92
2023-01-03T21:46:51.107Z,2.30
2023-01-03T21:49:17.544Z,2.15
2023-01-03T21:51:43.921Z,2.50
2023-01-03T21:54:10.438Z,2.80
2023-01-03T21:56:45.127Z,2.25
2023-01-03T21:59:16.393Z,2.47
2023-01-03T22:02:03.138Z,2.90
2023-01-03T22:04:30.210Z,2.30
2023-01-03T22:07:00.454Z,1.85
2023-01-03T22:09:46.655Z,2.13
2023-01-03T22:12:15.609Z,2.15
2023-01-03T22:14:43.445Z,2.60
2023-01-03T22:17:09.836Z,2.15
2023-01-03T22:19:36.200Z,1.95
2023-01-03T22:22:02.607Z,2.13
2023-01-03T22:24:29.557Z,2.25
2023-01-03T22:26:55.931Z,2.00
2023-01-03T22:29:22.370Z,1.92
2023-01-03T22:31:48.798Z,2.05
2023-01-03T22:34:15.217Z,2.35
2023-01-03T22:36:41.663Z,2.20
2023-01-03T22:39:08.020Z,2.40
2023-01-03T22:41:34.424Z,2.33
2023-01-03T22:44:00.807Z,2.28
2023-01-03T22:46:27.471Z,2.25
2023-01-03T22:48:54.887Z,2.28
2023-01-03T22:51:21.879Z,2.60
2023-01-03T22:53:49.099Z,1.92
2023-01-03T22:56:17.045Z,1.88
2023-01-03T22:58:44.731Z,2.25
2023-01-03T23:01:17.967Z,2.20
2023-01-03T23:03:46.324Z,2.03
2023-01-03T23:06:15.983Z,2.10
2023-01-03T23:08:43.195Z,2.35
2023-01-03T23:11:34.264Z,2.53
2023-01-03T23:14:07.496Z,2.17
2023-01-03T23:16:34.473Z,2.17
2023-01-03T23:19:11.557Z,2.25
2023-01-03T23:21:38.396Z,2.28
2023-01-03T23:24:05.187Z,2.50
2023-01-03T23:26:31.792Z,2.40
2023-01-03T23:29:00.106Z,2.45
2023-01-03T23:31:27.456Z,2.35
2023-01-03T23:33:55.643Z,1.70
2023-01-03T23:36:22.451Z,1.67
2023-01-03T23:38:49.004Z,2.15
2023-01-03T23:41:16.246Z,2.35
2023-01-03T23:43:42.975Z,2.03
2023-01-03T23:46:15.122Z,2.22
2023-01-03T23:48:41.784Z,1.95
2023-01-03T23:51:10.095Z,1.98
2023-01-03T23:53:38.248Z,2.58
2023-01-03T23:56:06.160Z,2.17
2023-01-03T23:58:32.707Z,2.30
